sensor_id;sensor_type;location;lat;lon;timestamp;temperature;humidity
5258;DHT22;2651;51.594;9.928;2024-01-11T00:00:56;-7.70;1.00
5258;DHT22;2651;51.594;9.928;2024-01-11T00:01:58;-7.70;1.00
5258;DHT22;2651;51.594;9.928;2024-01-11T00:03:00;-7.70;1.00
5258;DHT22;2651;51.594;9.928;2024-01-11T00:04:02;-7.70;1.00
5258;DHT22;2651;51.594;9.928;2024-01-11T00:05:04;-7.60;1.00
5258;DHT22;2651;51.594;9.928;2024-01-11T00:06:06;-7.50;1.00
5258;DHT22;2651;51.594;9.928;2024-01-11T00:07:07;-7.50;99.90
5258;DHT22;2651;51.594;9.928;2024-01-11T00:08:11;-7.50;1.00
5258;DHT22;2651;51.594;9.928;2024-01-11T00:09:12;-7.40;1.00
5258;DHT22;2651;51.594;9.928;2024-01-11T00:10:15;-7.40;1.00
5258;DHT22;2651;51.594;9.928;2024-01-11T00:11:17;-7.40;1.00
5258;DHT22;2651;51.594;9.928;2024-01-11T00:12:19;-7.40;1.00
5258;DHT22;2651;51.594;9.928;2024-01-11T00:13:21;-7.40;99.90
5258;DHT22;2651;51.594;9.928;2024-01-11T00:14:23;-7.50;99.90
5258;DHT22;2651;51.594;9.928;2024-01-11T00:15:24;-7.60;99.90
5258;DHT22;2651;51.594;9.928;2024-01-11T00:16:26;-7.60;99.90
5258;DHT22;2651;51.594;9.928;2024-01-11T00:17:28;-7.70;99.90
5258;DHT22;2651;51.594;9.928;2024-01-11T00:18:30;-7.70;99.90
5258;DHT22;2651;51.594;9.928;2024-01-11T00:19:31;-7.70;99.90
5258;DHT22;2651;51.594;9.928;2024-01-11T00:20:33;-7.60;1.00
5258;DHT22;2651;51.594;9.928;2024-01-11T00:21:36;-7.60;1.00
5258;DHT22;2651;51.594;9.928;2024-01-11T00:22:42;-7.70;99.90
5258;DHT22;2651;51.594;9.928;2024-01-11T00:23:44;-7.70;1.00
5258;DHT22;2651;51.594;9.928;2024-01-11T00:24:45;-7.70;1.00
5258;DHT22;2651;51.594;9.928;2024-01-11T00:25:47;-7.70;1.00
5258;DHT22;2651;51.594;9.928;2024-01-11T00:26:49;-7.80;99.90
5258;DHT22;2651;51.594;9.928;2024-01-11T00:27:50;-7.80;99.90
5258;DHT22;2651;51.594;9.928;2024-01-11T00:28:52;-7.80;99.90
5258;DHT22;2651;51.594;9.928;2024-01-11T00:29:54;-7.90;99.90
5258;DHT22;2651;51.594;9.928;2024-01-11T00:30:56;-7.90;1.00
5258;DHT22;2651;51.594;9.928;2024-01-11T00:31:57;-7.90;1.00
5258;DHT22;2651;51.594;9.928;2024-01-11T00:32:59;-7.90;1.00
5258;DHT22;2651;51.594;9.928;2024-01-11T00:34:01;-7.80;1.00
5258;DHT22;2651;51.594;9.928;2024-01-11T00:35:04;-7.70;1.00
5258;DHT22;2651;51.594;9.928;2024-01-11T00:36:06;-7.70;1.00
5258;DHT22;2651;51.594;9.928;2024-01-11T00:37:07;-7.70;1.00
5258;DHT22;2651;51.594;9.928;2024-01-11T00:38:09;-7.70;1.00
5258;DHT22;2651;51.594;9.928;2024-01-11T00:39:11;-7.80;1.00
5258;DHT22;2651;51.594;9.928;2024-01-11T00:40:13;-7.90;1.00
5258;DHT22;2651;51.594;9.928;2024-01-11T00:41:15;-7.80;1.00
5258;DHT22;2651;51.594;9.928;2024-01-11T00:42:16;-7.80;1.00
5258;DHT22;2651;51.594;9.928;2024-01-11T00:43:18;-7.80;1.00
5258;DHT22;2651;51.594;9.928;2024-01-11T00:44:20;-7.80;1.00
5258;DHT22;2651;51.594;9.928;2024-01-11T00:45:22;-7.70;1.00
5258;DHT22;2651;51.594;9.928;2024-01-11T00:46:23;-7.70;20.00
5258;DHT22;2651;51.594;9.928;2024-01-11T00:47:25;-7.60;1.00
5258;DHT22;2651;51.594;9.928;2024-01-11T00:48:26;-7.60;1.00
5258;DHT22;2651;51.594;9.928;2024-01-11T00:49:28;-7.70;1.00
5258;DHT22;2651;51.594;9.928;2024-01-11T00:50:30;-7.80;99.90
5258;DHT22;2651;51.594;9.928;2024-01-11T00:51:32;-7.90;99.90
5258;DHT22;2651;51.594;9.928;2024-01-11T00:52:34;-7.90;99.90
5258;DHT22;2651;51.594;9.928;2024-01-11T00:53:35;-7.90;99.90
5258;DHT22;2651;51.594;9.928;2024-01-11T00:54:37;-8.00;99.90
5258;DHT22;2651;51.594;9.928;2024-01-11T00:55:39;-8.00;1.00
5258;DHT22;2651;51.594;9.928;2024-01-11T00:56:41;-8.00;1.00
5258;DHT22;2651;51.594;9.928;2024-01-11T00:57:43;-8.10;1.00
5258;DHT22;2651;51.594;9.928;2024-01-11T00:58:45;-8.10;1.00
5258;DHT22;2651;51.594;9.928;2024-01-11T00:59:47;-8.10;1.00
5258;DHT22;2651;51.594;9.928;2024-01-11T01:00:48;-8.10;1.00
5258;DHT22;2651;51.594;9.928;2024-01-11T01:01:51;-8.10;85.10
5258;DHT22;2651;51.594;9.928;2024-01-11T01:02:53;-8.00;99.90
5258;DHT22;2651;51.594;9.928;2024-01-11T01:03:55;-8.00;99.90
5258;DHT22;2651;51.594;9.928;2024-01-11T01:04:57;-7.90;1.00
5258;DHT22;2651;51.594;9.928;2024-01-11T01:05:59;-7.90;1.00
5258;DHT22;2651;51.594;9.928;2024-01-11T01:07:01;-7.90;99.90
5258;DHT22;2651;51.594;9.928;2024-01-11T01:08:02;-7.90;99.90
5258;DHT22;2651;51.594;9.928;2024-01-11T01:09:04;-7.80;99.90
5258;DHT22;2651;51.594;9.928;2024-01-11T01:10:06;-7.80;99.90
5258;DHT22;2651;51.594;9.928;2024-01-11T01:11:09;-7.80;11.70
5258;DHT22;2651;51.594;9.928;2024-01-11T01:12:11;-7.90;1.00
5258;DHT22;2651;51.594;9.928;2024-01-11T01:13:12;-7.90;1.00
5258;DHT22;2651;51.594;9.928;2024-01-11T01:14:14;-8.00;1.00
5258;DHT22;2651;51.594;9.928;2024-01-11T01:15:16;-8.00;1.00
5258;DHT22;2651;51.594;9.928;2024-01-11T01:16:18;-7.90;1.00
5258;DHT22;2651;51.594;9.928;2024-01-11T01:17:20;-7.90;1.00
5258;DHT22;2651;51.594;9.928;2024-01-11T01:18:21;-8.00;1.00
5258;DHT22;2651;51.594;9.928;2024-01-11T01:19:23;-8.00;1.00
5258;DHT22;2651;51.594;9.928;2024-01-11T01:20:25;-7.90;1.00
5258;DHT22;2651;51.594;9.928;2024-01-11T01:21:26;-7.90;1.00
5258;DHT22;2651;51.594;9.928;2024-01-11T01:22:29;-7.90;1.00
5258;DHT22;2651;51.594;9.928;2024-01-11T01:23:31;-7.90;1.00
5258;DHT22;2651;51.594;9.928;2024-01-11T01:24:33;-8.00;1.00
5258;DHT22;2651;51.594;9.928;2024-01-11T01:25:34;-8.00;99.90
5258;DHT22;2651;51.594;9.928;2024-01-11T01:26:36;-8.10;99.90
5258;DHT22;2651;51.594;9.928;2024-01-11T01:27:38;-8.10;1.00
5258;DHT22;2651;51.594;9.928;2024-01-11T01:28:40;-8.10;1.00
5258;DHT22;2651;51.594;9.928;2024-01-11T01:29:41;-8.00;1.00
5258;DHT22;2651;51.594;9.928;2024-01-11T01:30:43;-7.90;1.00
5258;DHT22;2651;51.594;9.928;2024-01-11T01:31:45;-8.00;1.00
5258;DHT22;2651;51.594;9.928;2024-01-11T01:32:47;-8.10;1.00
5258;DHT22;2651;51.594;9.928;2024-01-11T01:33:49;-8.20;1.00
5258;DHT22;2651;51.594;9.928;2024-01-11T01:34:51;-8.20;1.00
5258;DHT22;2651;51.594;9.928;2024-01-11T01:35:52;-8.30;1.00
5258;DHT22;2651;51.594;9.928;2024-01-11T01:36:54;-8.30;1.00
5258;DHT22;2651;51.594;9.928;2024-01-11T01:37:56;-8.30;1.00
5258;DHT22;2651;51.594;9.928;2024-01-11T01:38:58;-8.30;1.00
5258;DHT22;2651;51.594;9.928;2024-01-11T01:39:59;-8.30;92.90
5258;DHT22;2651;51.594;9.928;2024-01-11T01:41:01;-8.30;99.90
5258;DHT22;2651;51.594;9.928;2024-01-11T01:42:03;-8.30;99.90
5258;DHT22;2651;51.594;9.928;2024-01-11T01:43:08;-8.30;1.00
5258;DHT22;2651;51.594;9.928;2024-01-11T01:44:14;-8.20;1.00
5258;DHT22;2651;51.594;9.928;2024-01-11T01:45:16;-8.10;1.00
5258;DHT22;2651;51.594;9.928;2024-01-11T01:46:21;-8.10;1.00
5258;DHT22;2651;51.594;9.928;2024-01-11T01:47:24;-8.10;1.00
5258;DHT22;2651;51.594;9.928;2024-01-11T01:48:27;-8.10;1.00
5258;DHT22;2651;51.594;9.928;2024-01-11T01:49:29;-8.00;1.00
5258;DHT22;2651;51.594;9.928;2024-01-11T01:50:32;-8.00;1.00
5258;DHT22;2651;51.594;9.928;2024-01-11T01:51:33;-7.90;1.00
5258;DHT22;2651;51.594;9.928;2024-01-11T01:52:36;-7.90;99.90
5258;DHT22;2651;51.594;9.928;2024-01-11T01:53:38;-7.90;62.10
5258;DHT22;2651;51.594;9.928;2024-01-11T01:54:40;-7.80;1.00
5258;DHT22;2651;51.594;9.928;2024-01-11T01:55:42;-7.80;1.00
5258;DHT22;2651;51.594;9.928;2024-01-11T01:56:44;-7.80;1.00
5258;DHT22;2651;51.594;9.928;2024-01-11T01:57:46;-7.80;99.90
5258;DHT22;2651;51.594;9.928;2024-01-11T01:58:51;-7.80;99.90
5258;DHT22;2651;51.594;9.928;2024-01-11T01:59:53;-7.80;99.90
5258;DHT22;2651;51.594;9.928;2024-01-11T02:00:55;-7.90;13.70
5258;DHT22;2651;51.594;9.928;2024-01-11T02:01:58;-8.00;1.00
5258;DHT22;2651;51.594;9.928;2024-01-11T02:03:00;-8.10;1.00
5258;DHT22;2651;51.594;9.928;2024-01-11T02:04:02;-8.10;99.90
5258;DHT22;2651;51.594;9.928;2024-01-11T02:05:04;-8.10;99.90
5258;DHT22;2651;51.594;9.928;2024-01-11T02:06:07;-8.20;99.90
5258;DHT22;2651;51.594;9.928;2024-01-11T02:07:10;-8.20;99.90
5258;DHT22;2651;51.594;9.928;2024-01-11T02:08:16;-8.20;99.90
5258;DHT22;2651;51.594;9.928;2024-01-11T02:09:19;-8.20;1.00
5258;DHT22;2651;51.594;9.928;2024-01-11T02:10:20;-8.20;1.00
5258;DHT22;2651;51.594;9.928;2024-01-11T02:11:24;-8.30;99.90
5258;DHT22;2651;51.594;9.928;2024-01-11T02:12:28;-8.40;1.00
5258;DHT22;2651;51.594;9.928;2024-01-11T02:13:31;-8.40;1.00
5258;DHT22;2651;51.594;9.928;2024-01-11T02:14:33;-8.40;1.00
5258;DHT22;2651;51.594;9.928;2024-01-11T02:15:35;-8.40;1.00
5258;DHT22;2651;51.594;9.928;2024-01-11T02:16:37;-8.40;1.00
5258;DHT22;2651;51.594;9.928;2024-01-11T02:17:40;-8.30;79.30
5258;DHT22;2651;51.594;9.928;2024-01-11T02:18:43;-8.30;70.70
5258;DHT22;2651;51.594;9.928;2024-01-11T02:19:46;-8.30;7.10
5258;DHT22;2651;51.594;9.928;2024-01-11T02:20:48;-8.30;1.00
5258;DHT22;2651;51.594;9.928;2024-01-11T02:21:50;-8.40;1.00
5258;DHT22;2651;51.594;9.928;2024-01-11T02:22:59;-8.40;1.00
5258;DHT22;2651;51.594;9.928;2024-01-11T02:24:06;-8.50;1.00
5258;DHT22;2651;51.594;9.928;2024-01-11T02:25:08;-8.50;1.00
5258;DHT22;2651;51.594;9.928;2024-01-11T02:26:10;-8.50;1.00
5258;DHT22;2651;51.594;9.928;2024-01-11T02:27:12;-8.50;1.00
5258;DHT22;2651;51.594;9.928;2024-01-11T02:28:13;-8.50;1.00
5258;DHT22;2651;51.594;9.928;2024-01-11T02:29:15;-8.50;1.00
5258;DHT22;2651;51.594;9.928;2024-01-11T02:30:17;-8.50;3.90
5258;DHT22;2651;51.594;9.928;2024-01-11T02:31:19;-8.50;88.70
5258;DHT22;2651;51.594;9.928;2024-01-11T02:32:22;-8.60;26.60
5258;DHT22;2651;51.594;9.928;2024-01-11T02:33:24;-8.60;18.40
5258;DHT22;2651;51.594;9.928;2024-01-11T02:34:27;-8.60;99.90
5258;DHT22;2651;51.594;9.928;2024-01-11T02:35:31;-8.50;99.90
5258;DHT22;2651;51.594;9.928;2024-01-11T02:36:33;-8.50;99.90
5258;DHT22;2651;51.594;9.928;2024-01-11T02:37:36;-8.50;99.90
5258;DHT22;2651;51.594;9.928;2024-01-11T02:38:40;-8.50;99.90
5258;DHT22;2651;51.594;9.928;2024-01-11T02:39:43;-8.60;99.90
5258;DHT22;2651;51.594;9.928;2024-01-11T02:40:46;-8.50;99.90
5258;DHT22;2651;51.594;9.928;2024-01-11T02:41:50;-8.60;99.90
5258;DHT22;2651;51.594;9.928;2024-01-11T02:42:52;-8.50;99.90
5258;DHT22;2651;51.594;9.928;2024-01-11T02:43:54;-8.50;99.90
5258;DHT22;2651;51.594;9.928;2024-01-11T02:44:56;-8.50;99.90
5258;DHT22;2651;51.594;9.928;2024-01-11T02:45:57;-8.40;1.00
5258;DHT22;2651;51.594;9.928;2024-01-11T02:47:00;-8.40;99.90
5258;DHT22;2651;51.594;9.928;2024-01-11T02:48:02;-8.50;1.00
5258;DHT22;2651;51.594;9.928;2024-01-11T02:49:04;-8.50;1.00
5258;DHT22;2651;51.594;9.928;2024-01-11T02:50:06;-8.40;99.90
5258;DHT22;2651;51.594;9.928;2024-01-11T02:51:09;-8.30;99.90
5258;DHT22;2651;51.594;9.928;2024-01-11T02:52:11;-8.20;19.70
5258;DHT22;2651;51.594;9.928;2024-01-11T02:53:12;-8.20;1.00
5258;DHT22;2651;51.594;9.928;2024-01-11T02:54:14;-8.10;1.00
5258;DHT22;2651;51.594;9.928;2024-01-11T02:55:16;-8.10;1.00
5258;DHT22;2651;51.594;9.928;2024-01-11T02:56:17;-8.20;1.00
5258;DHT22;2651;51.594;9.928;2024-01-11T02:57:19;-8.20;99.90
5258;DHT22;2651;51.594;9.928;2024-01-11T02:58:21;-8.20;99.90
5258;DHT22;2651;51.594;9.928;2024-01-11T02:59:23;-8.30;99.90
5258;DHT22;2651;51.594;9.928;2024-01-11T03:00:25;-8.30;99.90
5258;DHT22;2651;51.594;9.928;2024-01-11T03:01:27;-8.20;99.90
5258;DHT22;2651;51.594;9.928;2024-01-11T03:02:28;-8.10;99.90
5258;DHT22;2651;51.594;9.928;2024-01-11T03:03:31;-8.10;99.90
5258;DHT22;2651;51.594;9.928;2024-01-11T03:04:33;-8.10;99.90
5258;DHT22;2651;51.594;9.928;2024-01-11T03:05:34;-8.10;99.90
5258;DHT22;2651;51.594;9.928;2024-01-11T03:06:36;-8.20;99.90
5258;DHT22;2651;51.594;9.928;2024-01-11T03:07:38;-8.10;99.90
5258;DHT22;2651;51.594;9.928;2024-01-11T03:08:40;-8.10;99.90
5258;DHT22;2651;51.594;9.928;2024-01-11T03:09:42;-8.10;99.90
5258;DHT22;2651;51.594;9.928;2024-01-11T03:10:44;-8.10;99.90
5258;DHT22;2651;51.594;9.928;2024-01-11T03:11:45;-8.20;10.40
5258;DHT22;2651;51.594;9.928;2024-01-11T03:12:48;-8.20;99.90
5258;DHT22;2651;51.594;9.928;2024-01-11T03:13:50;-8.20;99.90
5258;DHT22;2651;51.594;9.928;2024-01-11T03:14:52;-8.20;99.90
5258;DHT22;2651;51.594;9.928;2024-01-11T03:15:54;-8.10;99.90
5258;DHT22;2651;51.594;9.928;2024-01-11T03:16:55;-8.20;99.90
5258;DHT22;2651;51.594;9.928;2024-01-11T03:17:57;-8.20;99.90
5258;DHT22;2651;51.594;9.928;2024-01-11T03:18:59;-8.10;99.90
5258;DHT22;2651;51.594;9.928;2024-01-11T03:20:01;-8.20;99.90
5258;DHT22;2651;51.594;9.928;2024-01-11T03:21:05;-8.30;18.50
5258;DHT22;2651;51.594;9.928;2024-01-11T03:22:07;-8.40;3.30
5258;DHT22;2651;51.594;9.928;2024-01-11T03:23:08;-8.50;4.80
5258;DHT22;2651;51.594;9.928;2024-01-11T03:24:10;-8.50;99.90
5258;DHT22;2651;51.594;9.928;2024-01-11T03:25:12;-8.50;99.90
5258;DHT22;2651;51.594;9.928;2024-01-11T03:26:17;-8.50;99.90
5258;DHT22;2651;51.594;9.928;2024-01-11T03:27:19;-8.50;99.90
5258;DHT22;2651;51.594;9.928;2024-01-11T03:28:21;-8.40;1.00
5258;DHT22;2651;51.594;9.928;2024-01-11T03:29:23;-8.50;99.90
5258;DHT22;2651;51.594;9.928;2024-01-11T03:30:25;-8.60;99.90
5258;DHT22;2651;51.594;9.928;2024-01-11T03:31:26;-8.60;99.90
5258;DHT22;2651;51.594;9.928;2024-01-11T03:32:28;-8.60;1.00
5258;DHT22;2651;51.594;9.928;2024-01-11T03:33:30;-8.50;1.00
5258;DHT22;2651;51.594;9.928;2024-01-11T03:34:32;-8.40;1.00
5258;DHT22;2651;51.594;9.928;2024-01-11T03:35:34;-8.40;1.00
5258;DHT22;2651;51.594;9.928;2024-01-11T03:36:35;-8.40;1.00
5258;DHT22;2651;51.594;9.928;2024-01-11T03:37:37;-8.30;1.00
5258;DHT22;2651;51.594;9.928;2024-01-11T03:38:39;-8.30;1.00
5258;DHT22;2651;51.594;9.928;2024-01-11T03:39:41;-8.20;1.00
5258;DHT22;2651;51.594;9.928;2024-01-11T03:40:42;-8.20;1.00
5258;DHT22;2651;51.594;9.928;2024-01-11T03:41:44;-8.20;1.00
5258;DHT22;2651;51.594;9.928;2024-01-11T03:42:46;-8.20;99.90
5258;DHT22;2651;51.594;9.928;2024-01-11T03:43:49;-8.20;99.90
5258;DHT22;2651;51.594;9.928;2024-01-11T03:44:51;-8.20;1.00
5258;DHT22;2651;51.594;9.928;2024-01-11T03:45:53;-8.20;99.90
5258;DHT22;2651;51.594;9.928;2024-01-11T03:46:55;-8.20;1.00
5258;DHT22;2651;51.594;9.928;2024-01-11T03:47:56;-8.20;99.90
5258;DHT22;2651;51.594;9.928;2024-01-11T03:48:58;-8.20;99.90
5258;DHT22;2651;51.594;9.928;2024-01-11T03:50:01;-8.30;99.90
5258;DHT22;2651;51.594;9.928;2024-01-11T03:51:03;-8.20;99.90
5258;DHT22;2651;51.594;9.928;2024-01-11T03:52:05;-8.20;99.90
5258;DHT22;2651;51.594;9.928;2024-01-11T03:53:07;-8.20;99.90
5258;DHT22;2651;51.594;9.928;2024-01-11T03:54:10;-8.20;99.90
5258;DHT22;2651;51.594;9.928;2024-01-11T03:55:11;-8.20;99.90
5258;DHT22;2651;51.594;9.928;2024-01-11T03:56:13;-8.20;99.90
5258;DHT22;2651;51.594;9.928;2024-01-11T03:57:15;-8.10;99.90
5258;DHT22;2651;51.594;9.928;2024-01-11T03:58:18;-8.20;99.90
5258;DHT22;2651;51.594;9.928;2024-01-11T03:59:19;-8.20;84.60
5258;DHT22;2651;51.594;9.928;2024-01-11T04:00:21;-8.20;1.00
5258;DHT22;2651;51.594;9.928;2024-01-11T04:01:23;-8.20;1.00
5258;DHT22;2651;51.594;9.928;2024-01-11T04:02:25;-8.20;1.00
5258;DHT22;2651;51.594;9.928;2024-01-11T04:03:26;-8.20;1.00
5258;DHT22;2651;51.594;9.928;2024-01-11T04:04:28;-8.20;1.00
5258;DHT22;2651;51.594;9.928;2024-01-11T04:05:30;-8.20;1.00
5258;DHT22;2651;51.594;9.928;2024-01-11T04:06:32;-8.20;1.00
5258;DHT22;2651;51.594;9.928;2024-01-11T04:07:34;-8.20;1.00
5258;DHT22;2651;51.594;9.928;2024-01-11T04:08:35;-8.20;1.00
5258;DHT22;2651;51.594;9.928;2024-01-11T04:09:38;-8.40;1.00
5258;DHT22;2651;51.594;9.928;2024-01-11T04:10:40;-8.50;1.00
5258;DHT22;2651;51.594;9.928;2024-01-11T04:11:41;-8.60;1.00
5258;DHT22;2651;51.594;9.928;2024-01-11T04:12:43;-8.70;1.00
5258;DHT22;2651;51.594;9.928;2024-01-11T04:13:45;-8.70;99.90
5258;DHT22;2651;51.594;9.928;2024-01-11T04:14:46;-8.80;99.90
5258;DHT22;2651;51.594;9.928;2024-01-11T04:15:48;-8.80;1.00
5258;DHT22;2651;51.594;9.928;2024-01-11T04:16:50;-8.80;1.00
5258;DHT22;2651;51.594;9.928;2024-01-11T04:17:52;-8.70;1.00
5258;DHT22;2651;51.594;9.928;2024-01-11T04:18:54;-8.70;1.00
5258;DHT22;2651;51.594;9.928;2024-01-11T04:19:55;-8.70;1.00
5258;DHT22;2651;51.594;9.928;2024-01-11T04:20:57;-8.70;1.00
5258;DHT22;2651;51.594;9.928;2024-01-11T04:21:59;-8.80;14.60
5258;DHT22;2651;51.594;9.928;2024-01-11T04:23:00;-8.80;74.40
5258;DHT22;2651;51.594;9.928;2024-01-11T04:24:02;-8.70;99.90
5258;DHT22;2651;51.594;9.928;2024-01-11T04:25:04;-8.70;99.90
5258;DHT22;2651;51.594;9.928;2024-01-11T04:26:07;-8.60;99.90
5258;DHT22;2651;51.594;9.928;2024-01-11T04:27:08;-8.60;99.90
5258;DHT22;2651;51.594;9.928;2024-01-11T04:28:10;-8.60;99.90
5258;DHT22;2651;51.594;9.928;2024-01-11T04:29:12;-8.60;99.90
5258;DHT22;2651;51.594;9.928;2024-01-11T04:30:13;-8.60;99.90
5258;DHT22;2651;51.594;9.928;2024-01-11T04:31:15;-8.50;99.90
5258;DHT22;2651;51.594;9.928;2024-01-11T04:32:20;-8.60;25.30
5258;DHT22;2651;51.594;9.928;2024-01-11T04:33:22;-8.60;1.00
5258;DHT22;2651;51.594;9.928;2024-01-11T04:34:23;-8.60;1.00
5258;DHT22;2651;51.594;9.928;2024-01-11T04:35:25;-8.60;1.00
5258;DHT22;2651;51.594;9.928;2024-01-11T04:36:27;-8.70;1.00
5258;DHT22;2651;51.594;9.928;2024-01-11T04:37:28;-8.70;1.00
5258;DHT22;2651;51.594;9.928;2024-01-11T04:38:30;-8.70;1.00
5258;DHT22;2651;51.594;9.928;2024-01-11T04:39:32;-8.60;99.90
5258;DHT22;2651;51.594;9.928;2024-01-11T04:40:34;-8.50;99.90
5258;DHT22;2651;51.594;9.928;2024-01-11T04:41:36;-8.50;99.90
5258;DHT22;2651;51.594;9.928;2024-01-11T04:42:38;-8.40;1.00
5258;DHT22;2651;51.594;9.928;2024-01-11T04:43:42;-8.40;1.00
5258;DHT22;2651;51.594;9.928;2024-01-11T04:44:44;-8.50;1.00
5258;DHT22;2651;51.594;9.928;2024-01-11T04:45:46;-8.50;1.00
5258;DHT22;2651;51.594;9.928;2024-01-11T04:46:48;-8.60;1.00
5258;DHT22;2651;51.594;9.928;2024-01-11T04:47:52;-8.60;1.00
5258;DHT22;2651;51.594;9.928;2024-01-11T04:48:54;-8.60;1.00
5258;DHT22;2651;51.594;9.928;2024-01-11T04:49:56;-8.60;1.00
5258;DHT22;2651;51.594;9.928;2024-01-11T04:50:58;-8.60;1.00
5258;DHT22;2651;51.594;9.928;2024-01-11T04:52:00;-8.60;1.00
5258;DHT22;2651;51.594;9.928;2024-01-11T04:53:01;-8.60;1.00
5258;DHT22;2651;51.594;9.928;2024-01-11T04:54:03;-8.50;1.00
5258;DHT22;2651;51.594;9.928;2024-01-11T04:55:05;-8.50;1.00
5258;DHT22;2651;51.594;9.928;2024-01-11T04:56:08;-8.40;1.00
5258;DHT22;2651;51.594;9.928;2024-01-11T04:57:09;-8.40;1.00
5258;DHT22;2651;51.594;9.928;2024-01-11T04:58:11;-8.40;1.00
5258;DHT22;2651;51.594;9.928;2024-01-11T04:59:13;-8.40;1.00
5258;DHT22;2651;51.594;9.928;2024-01-11T05:00:15;-8.40;1.00
5258;DHT22;2651;51.594;9.928;2024-01-11T05:01:17;-8.40;1.00
5258;DHT22;2651;51.594;9.928;2024-01-11T05:02:22;-8.40;1.00
5258;DHT22;2651;51.594;9.928;2024-01-11T05:03:24;-8.50;99.90
5258;DHT22;2651;51.594;9.928;2024-01-11T05:04:25;-8.50;99.90
5258;DHT22;2651;51.594;9.928;2024-01-11T05:05:27;-8.50;99.90
5258;DHT22;2651;51.594;9.928;2024-01-11T05:06:29;-8.50;99.90
5258;DHT22;2651;51.594;9.928;2024-01-11T05:07:31;-8.50;1.00
5258;DHT22;2651;51.594;9.928;2024-01-11T05:08:33;-8.40;1.00
5258;DHT22;2651;51.594;9.928;2024-01-11T05:09:35;-8.40;1.00
5258;DHT22;2651;51.594;9.928;2024-01-11T05:10:37;-8.30;99.90
5258;DHT22;2651;51.594;9.928;2024-01-11T05:11:39;-8.30;99.90
5258;DHT22;2651;51.594;9.928;2024-01-11T05:12:40;-8.30;99.90
5258;DHT22;2651;51.594;9.928;2024-01-11T05:13:42;-8.40;99.90
5258;DHT22;2651;51.594;9.928;2024-01-11T05:14:44;-8.40;99.90
5258;DHT22;2651;51.594;9.928;2024-01-11T05:15:46;-8.40;99.90
5258;DHT22;2651;51.594;9.928;2024-01-11T05:16:48;-8.40;99.90
5258;DHT22;2651;51.594;9.928;2024-01-11T05:17:50;-8.40;99.90
5258;DHT22;2651;51.594;9.928;2024-01-11T05:18:53;-8.50;99.90
5258;DHT22;2651;51.594;9.928;2024-01-11T05:19:55;-8.40;99.90
5258;DHT22;2651;51.594;9.928;2024-01-11T05:20:57;-8.40;99.90
5258;DHT22;2651;51.594;9.928;2024-01-11T05:21:59;-8.40;99.90
5258;DHT22;2651;51.594;9.928;2024-01-11T05:23:01;-8.40;99.90
5258;DHT22;2651;51.594;9.928;2024-01-11T05:24:02;-8.50;99.90
5258;DHT22;2651;51.594;9.928;2024-01-11T05:25:04;-8.50;99.90
5258;DHT22;2651;51.594;9.928;2024-01-11T05:26:06;-8.60;1.00
5258;DHT22;2651;51.594;9.928;2024-01-11T05:27:08;-8.60;1.00
5258;DHT22;2651;51.594;9.928;2024-01-11T05:28:10;-8.60;1.00
5258;DHT22;2651;51.594;9.928;2024-01-11T05:29:12;-8.50;1.00
5258;DHT22;2651;51.594;9.928;2024-01-11T05:30:14;-8.50;99.90
5258;DHT22;2651;51.594;9.928;2024-01-11T05:31:16;-8.40;99.90
5258;DHT22;2651;51.594;9.928;2024-01-11T05:32:19;-8.40;99.90
5258;DHT22;2651;51.594;9.928;2024-01-11T05:33:21;-8.40;99.90
5258;DHT22;2651;51.594;9.928;2024-01-11T05:34:24;-8.40;99.90
5258;DHT22;2651;51.594;9.928;2024-01-11T05:35:25;-8.40;99.90
5258;DHT22;2651;51.594;9.928;2024-01-11T05:36:30;-8.40;1.00
5258;DHT22;2651;51.594;9.928;2024-01-11T05:37:32;-8.40;1.00
5258;DHT22;2651;51.594;9.928;2024-01-11T05:38:34;-8.40;1.00
5258;DHT22;2651;51.594;9.928;2024-01-11T05:39:36;-8.30;1.00
5258;DHT22;2651;51.594;9.928;2024-01-11T05:40:38;-8.30;1.00
5258;DHT22;2651;51.594;9.928;2024-01-11T05:41:43;-8.30;1.00
5258;DHT22;2651;51.594;9.928;2024-01-11T05:42:45;-8.30;1.00
5258;DHT22;2651;51.594;9.928;2024-01-11T05:43:47;-8.20;1.00
5258;DHT22;2651;51.594;9.928;2024-01-11T05:44:49;-8.20;1.00
5258;DHT22;2651;51.594;9.928;2024-01-11T05:45:51;-8.20;24.10
5258;DHT22;2651;51.594;9.928;2024-01-11T05:46:52;-8.20;69.50
5258;DHT22;2651;51.594;9.928;2024-01-11T05:47:54;-8.20;84.90
5258;DHT22;2651;51.594;9.928;2024-01-11T05:48:56;-8.20;99.90
5258;DHT22;2651;51.594;9.928;2024-01-11T05:49:58;-8.10;99.90
5258;DHT22;2651;51.594;9.928;2024-01-11T05:50:59;-8.10;99.90
5258;DHT22;2651;51.594;9.928;2024-01-11T05:52:01;-8.10;99.90
5258;DHT22;2651;51.594;9.928;2024-01-11T05:53:03;-8.10;99.90
5258;DHT22;2651;51.594;9.928;2024-01-11T05:54:06;-8.10;99.90
5258;DHT22;2651;51.594;9.928;2024-01-11T05:55:07;-8.10;99.90
5258;DHT22;2651;51.594;9.928;2024-01-11T05:56:09;-8.10;99.90
5258;DHT22;2651;51.594;9.928;2024-01-11T05:57:12;-8.10;99.90
5258;DHT22;2651;51.594;9.928;2024-01-11T05:58:14;-8.10;99.90
5258;DHT22;2651;51.594;9.928;2024-01-11T05:59:15;-8.10;99.90
5258;DHT22;2651;51.594;9.928;2024-01-11T06:00:17;-8.20;99.90
5258;DHT22;2651;51.594;9.928;2024-01-11T06:01:19;-8.10;99.90
5258;DHT22;2651;51.594;9.928;2024-01-11T06:02:21;-8.10;99.90
5258;DHT22;2651;51.594;9.928;2024-01-11T06:03:24;-8.10;99.90
5258;DHT22;2651;51.594;9.928;2024-01-11T06:04:26;-8.20;99.90
5258;DHT22;2651;51.594;9.928;2024-01-11T06:05:28;-8.20;99.90
5258;DHT22;2651;51.594;9.928;2024-01-11T06:06:30;-8.20;99.90
5258;DHT22;2651;51.594;9.928;2024-01-11T06:07:32;-8.30;99.90
5258;DHT22;2651;51.594;9.928;2024-01-11T06:08:33;-8.20;99.90
5258;DHT22;2651;51.594;9.928;2024-01-11T06:09:35;-8.20;1.00
5258;DHT22;2651;51.594;9.928;2024-01-11T06:10:37;-8.20;1.00
5258;DHT22;2651;51.594;9.928;2024-01-11T06:11:39;-8.20;1.00
5258;DHT22;2651;51.594;9.928;2024-01-11T06:12:41;-8.20;99.90
5258;DHT22;2651;51.594;9.928;2024-01-11T06:13:43;-8.30;99.90
5258;DHT22;2651;51.594;9.928;2024-01-11T06:14:44;-8.30;1.00
5258;DHT22;2651;51.594;9.928;2024-01-11T06:15:46;-8.30;1.00
5258;DHT22;2651;51.594;9.928;2024-01-11T06:16:48;-8.40;1.00
5258;DHT22;2651;51.594;9.928;2024-01-11T06:17:50;-8.40;1.00
5258;DHT22;2651;51.594;9.928;2024-01-11T06:18:52;-8.40;1.00
5258;DHT22;2651;51.594;9.928;2024-01-11T06:19:54;-8.40;1.00
5258;DHT22;2651;51.594;9.928;2024-01-11T06:20:56;-8.30;99.90
5258;DHT22;2651;51.594;9.928;2024-01-11T06:21:58;-8.30;99.90
5258;DHT22;2651;51.594;9.928;2024-01-11T06:22:59;-8.30;99.90
5258;DHT22;2651;51.594;9.928;2024-01-11T06:24:01;-8.30;1.00
5258;DHT22;2651;51.594;9.928;2024-01-11T06:25:05;-8.40;1.00
5258;DHT22;2651;51.594;9.928;2024-01-11T06:26:07;-8.40;1.00
5258;DHT22;2651;51.594;9.928;2024-01-11T06:27:09;-8.40;1.00
5258;DHT22;2651;51.594;9.928;2024-01-11T06:28:11;-8.50;1.00
5258;DHT22;2651;51.594;9.928;2024-01-11T06:29:13;-8.50;1.00
5258;DHT22;2651;51.594;9.928;2024-01-11T06:30:15;-8.50;1.00
5258;DHT22;2651;51.594;9.928;2024-01-11T06:31:17;-8.50;1.00
5258;DHT22;2651;51.594;9.928;2024-01-11T06:32:19;-8.40;1.00
5258;DHT22;2651;51.594;9.928;2024-01-11T06:33:21;-8.40;1.00
5258;DHT22;2651;51.594;9.928;2024-01-11T06:34:26;-8.30;90.30
5258;DHT22;2651;51.594;9.928;2024-01-11T06:35:28;-8.20;91.30
5258;DHT22;2651;51.594;9.928;2024-01-11T06:36:30;-8.20;1.00
5258;DHT22;2651;51.594;9.928;2024-01-11T06:37:32;-8.20;1.00
5258;DHT22;2651;51.594;9.928;2024-01-11T06:38:34;-8.10;1.00
5258;DHT22;2651;51.594;9.928;2024-01-11T06:39:35;-8.20;99.90
5258;DHT22;2651;51.594;9.928;2024-01-11T06:40:37;-8.20;1.00
5258;DHT22;2651;51.594;9.928;2024-01-11T06:41:39;-8.30;1.00
5258;DHT22;2651;51.594;9.928;2024-01-11T06:42:41;-8.30;1.00
5258;DHT22;2651;51.594;9.928;2024-01-11T06:43:43;-8.40;1.00
5258;DHT22;2651;51.594;9.928;2024-01-11T06:44:44;-8.40;1.00
5258;DHT22;2651;51.594;9.928;2024-01-11T06:45:46;-8.30;1.00
5258;DHT22;2651;51.594;9.928;2024-01-11T06:46:48;-8.20;1.00
5258;DHT22;2651;51.594;9.928;2024-01-11T06:47:50;-8.30;1.00
5258;DHT22;2651;51.594;9.928;2024-01-11T06:48:51;-8.20;1.00